Terminal Aerodrome Forecast
Issued by NWS

Current Version | Previous Version | Text Only | Print | Product List | Glossary On
Versions: 1 2 3 4 5 6 7 8 9 10 11 12 13 14 15 16 17 18 19 20 21 22 23 24 25 26 27 28 29 30 31 32 33 34
000
FTUS43 KDDC 222200 AAA
TAFHYS
TAF AMD
KHYS 222208Z 2222/2318 15012KT P6SM SCT080 SCT120
     FM222300 VRB20G30KT P6SM VCTS BKN070CB
     FM230100 13012KT P6SM SCT100 BKN250=

USA.gov is the U.S. government's official web portal to all federal, state and local government web resources and services.